sensor_id;sensor_type;location;lat;lon;timestamp;temperature;humidity
37530;DHT22;23374;52.758;6.872;2022-11-15T00:01:26;8.20;99.90
37530;DHT22;23374;52.758;6.872;2022-11-15T00:03:51;8.20;99.90
37530;DHT22;23374;52.758;6.872;2022-11-15T00:06:11;8.20;99.90
37530;DHT22;23374;52.758;6.872;2022-11-15T00:08:32;8.20;99.90
37530;DHT22;23374;52.758;6.872;2022-11-15T00:11:01;8.20;99.90
37530;DHT22;23374;52.758;6.872;2022-11-15T00:13:21;8.20;99.90
37530;DHT22;23374;52.758;6.872;2022-11-15T00:15:41;8.30;99.90
37530;DHT22;23374;52.758;6.872;2022-11-15T00:18:03;8.30;99.90
37530;DHT22;23374;52.758;6.872;2022-11-15T00:20:24;8.30;99.90
37530;DHT22;23374;52.758;6.872;2022-11-15T00:22:44;8.40;99.90
37530;DHT22;23374;52.758;6.872;2022-11-15T00:25:05;8.40;99.90
37530;DHT22;23374;52.758;6.872;2022-11-15T00:27:26;8.40;99.90
37530;DHT22;23374;52.758;6.872;2022-11-15T00:29:47;8.40;99.90
37530;DHT22;23374;52.758;6.872;2022-11-15T00:32:07;8.50;99.90
37530;DHT22;23374;52.758;6.872;2022-11-15T00:34:27;8.50;99.90
37530;DHT22;23374;52.758;6.872;2022-11-15T00:36:47;8.50;99.90
37530;DHT22;23374;52.758;6.872;2022-11-15T00:39:07;8.60;99.90
37530;DHT22;23374;52.758;6.872;2022-11-15T00:41:28;8.50;99.90
37530;DHT22;23374;52.758;6.872;2022-11-15T00:43:49;8.60;99.90
37530;DHT22;23374;52.758;6.872;2022-11-15T00:46:09;8.60;99.90
37530;DHT22;23374;52.758;6.872;2022-11-15T00:48:30;8.60;99.90
37530;DHT22;23374;52.758;6.872;2022-11-15T00:50:51;8.60;99.90
37530;DHT22;23374;52.758;6.872;2022-11-15T00:53:11;8.70;98.20
37530;DHT22;23374;52.758;6.872;2022-11-15T00:55:31;8.70;99.90
37530;DHT22;23374;52.758;6.872;2022-11-15T00:57:52;8.70;99.90
37530;DHT22;23374;52.758;6.872;2022-11-15T01:00:13;8.70;99.90
37530;DHT22;23374;52.758;6.872;2022-11-15T01:02:34;8.70;99.90
37530;DHT22;23374;52.758;6.872;2022-11-15T01:04:54;8.70;99.90
37530;DHT22;23374;52.758;6.872;2022-11-15T01:07:15;8.70;99.90
37530;DHT22;23374;52.758;6.872;2022-11-15T01:09:35;8.70;99.00
37530;DHT22;23374;52.758;6.872;2022-11-15T01:11:55;8.70;99.90
37530;DHT22;23374;52.758;6.872;2022-11-15T01:14:15;8.70;98.80
37530;DHT22;23374;52.758;6.872;2022-11-15T01:16:35;8.70;99.90
37530;DHT22;23374;52.758;6.872;2022-11-15T01:18:55;8.70;99.90
37530;DHT22;23374;52.758;6.872;2022-11-15T01:21:18;8.70;99.90
37530;DHT22;23374;52.758;6.872;2022-11-15T01:23:39;8.70;99.90
37530;DHT22;23374;52.758;6.872;2022-11-15T01:26:01;8.70;99.90
37530;DHT22;23374;52.758;6.872;2022-11-15T01:28:22;8.70;99.90
37530;DHT22;23374;52.758;6.872;2022-11-15T01:30:43;8.70;99.90
37530;DHT22;23374;52.758;6.872;2022-11-15T01:33:03;8.80;99.90
37530;DHT22;23374;52.758;6.872;2022-11-15T01:35:23;8.80;99.90
37530;DHT22;23374;52.758;6.872;2022-11-15T01:37:43;8.80;99.90
37530;DHT22;23374;52.758;6.872;2022-11-15T01:40:04;8.80;99.90
37530;DHT22;23374;52.758;6.872;2022-11-15T01:42:25;8.80;99.90
37530;DHT22;23374;52.758;6.872;2022-11-15T01:44:50;8.80;99.90
37530;DHT22;23374;52.758;6.872;2022-11-15T01:47:42;8.80;99.90
37530;DHT22;23374;52.758;6.872;2022-11-15T01:50:12;8.80;99.90
37530;DHT22;23374;52.758;6.872;2022-11-15T01:52:35;8.80;99.90
37530;DHT22;23374;52.758;6.872;2022-11-15T01:55:17;8.80;99.90
37530;DHT22;23374;52.758;6.872;2022-11-15T01:57:40;8.80;99.90
37530;DHT22;23374;52.758;6.872;2022-11-15T02:00:02;8.90;99.90
37530;DHT22;23374;52.758;6.872;2022-11-15T02:02:23;8.90;99.90
37530;DHT22;23374;52.758;6.872;2022-11-15T02:04:46;8.90;99.90
37530;DHT22;23374;52.758;6.872;2022-11-15T02:07:09;8.90;99.90
37530;DHT22;23374;52.758;6.872;2022-11-15T02:09:30;8.80;99.90
37530;DHT22;23374;52.758;6.872;2022-11-15T02:11:51;8.90;99.90
37530;DHT22;23374;52.758;6.872;2022-11-15T02:14:16;8.90;99.90
37530;DHT22;23374;52.758;6.872;2022-11-15T02:25:34;8.90;99.90
37530;DHT22;23374;52.758;6.872;2022-11-15T02:35:50;8.90;99.90
37530;DHT22;23374;52.758;6.872;2022-11-15T02:38:56;8.80;99.90
37530;DHT22;23374;52.758;6.872;2022-11-15T02:41:34;8.80;99.90
37530;DHT22;23374;52.758;6.872;2022-11-15T02:44:05;8.80;99.90
37530;DHT22;23374;52.758;6.872;2022-11-15T02:46:49;8.80;99.90
37530;DHT22;23374;52.758;6.872;2022-11-15T02:49:33;8.90;99.90
37530;DHT22;23374;52.758;6.872;2022-11-15T02:51:55;8.90;99.90
37530;DHT22;23374;52.758;6.872;2022-11-15T02:54:21;8.90;99.90
37530;DHT22;23374;52.758;6.872;2022-11-15T02:56:44;8.90;99.90
37530;DHT22;23374;52.758;6.872;2022-11-15T03:07:18;9.00;99.90
37530;DHT22;23374;52.758;6.872;2022-11-15T03:09:58;9.00;99.90
37530;DHT22;23374;52.758;6.872;2022-11-15T03:12:37;9.00;99.90
37530;DHT22;23374;52.758;6.872;2022-11-15T03:15:20;9.00;99.90
37530;DHT22;23374;52.758;6.872;2022-11-15T03:17:58;9.00;99.90
37530;DHT22;23374;52.758;6.872;2022-11-15T03:20:21;9.10;99.90
37530;DHT22;23374;52.758;6.872;2022-11-15T03:22:44;9.10;99.90
37530;DHT22;23374;52.758;6.872;2022-11-15T03:25:09;9.10;99.90
37530;DHT22;23374;52.758;6.872;2022-11-15T03:27:36;9.10;99.90
37530;DHT22;23374;52.758;6.872;2022-11-15T03:30:02;9.10;99.90
37530;DHT22;23374;52.758;6.872;2022-11-15T03:32:28;9.20;99.90
37530;DHT22;23374;52.758;6.872;2022-11-15T03:34:55;9.20;99.90
37530;DHT22;23374;52.758;6.872;2022-11-15T03:37:17;9.20;99.90
37530;DHT22;23374;52.758;6.872;2022-11-15T03:39:42;9.20;99.90
37530;DHT22;23374;52.758;6.872;2022-11-15T03:48:59;9.20;99.90
37530;DHT22;23374;52.758;6.872;2022-11-15T03:51:23;9.20;99.90
37530;DHT22;23374;52.758;6.872;2022-11-15T03:53:44;9.20;99.90
37530;DHT22;23374;52.758;6.872;2022-11-15T03:56:06;9.20;99.90
37530;DHT22;23374;52.758;6.872;2022-11-15T03:58:26;9.20;99.90
37530;DHT22;23374;52.758;6.872;2022-11-15T04:00:46;9.30;99.90
37530;DHT22;23374;52.758;6.872;2022-11-15T04:03:07;9.30;99.90
37530;DHT22;23374;52.758;6.872;2022-11-15T04:05:27;9.30;99.90
37530;DHT22;23374;52.758;6.872;2022-11-15T04:07:47;9.30;99.90
37530;DHT22;23374;52.758;6.872;2022-11-15T04:10:10;9.30;99.90
37530;DHT22;23374;52.758;6.872;2022-11-15T04:12:37;9.40;99.90
37530;DHT22;23374;52.758;6.872;2022-11-15T04:15:05;9.40;99.90
37530;DHT22;23374;52.758;6.872;2022-11-15T04:17:29;9.40;99.90
37530;DHT22;23374;52.758;6.872;2022-11-15T04:19:49;9.40;99.90
37530;DHT22;23374;52.758;6.872;2022-11-15T04:22:28;9.40;99.90
37530;DHT22;23374;52.758;6.872;2022-11-15T04:25:07;9.40;99.90
37530;DHT22;23374;52.758;6.872;2022-11-15T04:27:28;9.40;99.90
37530;DHT22;23374;52.758;6.872;2022-11-15T04:29:48;9.40;99.90
37530;DHT22;23374;52.758;6.872;2022-11-15T04:32:08;9.50;99.90
37530;DHT22;23374;52.758;6.872;2022-11-15T04:34:28;9.50;99.90
37530;DHT22;23374;52.758;6.872;2022-11-15T04:36:49;9.40;99.90
37530;DHT22;23374;52.758;6.872;2022-11-15T04:39:28;9.50;99.90
37530;DHT22;23374;52.758;6.872;2022-11-15T04:41:48;9.40;99.90
37530;DHT22;23374;52.758;6.872;2022-11-15T04:44:08;9.50;99.90
37530;DHT22;23374;52.758;6.872;2022-11-15T04:46:29;9.50;99.90
37530;DHT22;23374;52.758;6.872;2022-11-15T04:48:51;9.50;99.90
37530;DHT22;23374;52.758;6.872;2022-11-15T04:51:11;9.50;99.90
37530;DHT22;23374;52.758;6.872;2022-11-15T04:53:31;9.50;99.90
37530;DHT22;23374;52.758;6.872;2022-11-15T04:55:52;9.50;99.90
37530;DHT22;23374;52.758;6.872;2022-11-15T04:58:12;9.50;99.90
37530;DHT22;23374;52.758;6.872;2022-11-15T05:00:33;9.60;99.90
37530;DHT22;23374;52.758;6.872;2022-11-15T05:02:53;9.60;99.90
37530;DHT22;23374;52.758;6.872;2022-11-15T05:05:31;9.60;99.90
37530;DHT22;23374;52.758;6.872;2022-11-15T05:07:51;9.60;99.90
37530;DHT22;23374;52.758;6.872;2022-11-15T05:10:11;9.70;99.90
37530;DHT22;23374;52.758;6.872;2022-11-15T05:12:32;9.70;99.90
37530;DHT22;23374;52.758;6.872;2022-11-15T05:14:52;9.70;99.90
37530;DHT22;23374;52.758;6.872;2022-11-15T05:17:12;9.70;99.90
37530;DHT22;23374;52.758;6.872;2022-11-15T05:19:32;9.70;99.90
37530;DHT22;23374;52.758;6.872;2022-11-15T05:21:52;9.70;99.90
37530;DHT22;23374;52.758;6.872;2022-11-15T05:24:13;9.80;99.90
37530;DHT22;23374;52.758;6.872;2022-11-15T05:26:33;9.80;99.90
37530;DHT22;23374;52.758;6.872;2022-11-15T05:28:56;9.80;99.90
37530;DHT22;23374;52.758;6.872;2022-11-15T05:31:17;9.80;99.90
37530;DHT22;23374;52.758;6.872;2022-11-15T05:33:39;9.80;99.90
37530;DHT22;23374;52.758;6.872;2022-11-15T05:36:15;9.90;99.90
37530;DHT22;23374;52.758;6.872;2022-11-15T05:38:37;9.90;99.90
37530;DHT22;23374;52.758;6.872;2022-11-15T05:41:00;9.90;99.90
37530;DHT22;23374;52.758;6.872;2022-11-15T05:43:22;9.90;99.90
37530;DHT22;23374;52.758;6.872;2022-11-15T05:45:43;9.90;99.90
37530;DHT22;23374;52.758;6.872;2022-11-15T05:48:08;10.00;99.90
37530;DHT22;23374;52.758;6.872;2022-11-15T05:50:28;10.00;99.90
37530;DHT22;23374;52.758;6.872;2022-11-15T05:52:49;10.00;99.90
37530;DHT22;23374;52.758;6.872;2022-11-15T05:55:10;10.00;99.90
37530;DHT22;23374;52.758;6.872;2022-11-15T05:57:30;10.10;99.90
37530;DHT22;23374;52.758;6.872;2022-11-15T05:59:51;10.10;99.90
37530;DHT22;23374;52.758;6.872;2022-11-15T06:02:11;10.10;99.90
37530;DHT22;23374;52.758;6.872;2022-11-15T06:04:32;10.10;99.90
37530;DHT22;23374;52.758;6.872;2022-11-15T06:06:52;10.20;99.90
37530;DHT22;23374;52.758;6.872;2022-11-15T06:09:12;10.20;99.90
37530;DHT22;23374;52.758;6.872;2022-11-15T06:11:32;10.20;99.90
37530;DHT22;23374;52.758;6.872;2022-11-15T06:13:53;10.20;99.90
37530;DHT22;23374;52.758;6.872;2022-11-15T06:16:13;10.30;99.90
37530;DHT22;23374;52.758;6.872;2022-11-15T06:18:34;10.20;99.90
37530;DHT22;23374;52.758;6.872;2022-11-15T06:20:59;10.30;99.90
37530;DHT22;23374;52.758;6.872;2022-11-15T06:23:19;10.30;99.90
37530;DHT22;23374;52.758;6.872;2022-11-15T06:25:39;10.30;99.90
37530;DHT22;23374;52.758;6.872;2022-11-15T06:27:59;10.40;99.90
37530;DHT22;23374;52.758;6.872;2022-11-15T06:30:21;10.40;99.90
37530;DHT22;23374;52.758;6.872;2022-11-15T06:32:41;10.40;99.90
37530;DHT22;23374;52.758;6.872;2022-11-15T06:35:02;10.40;99.90
37530;DHT22;23374;52.758;6.872;2022-11-15T06:37:22;10.50;99.90
37530;DHT22;23374;52.758;6.872;2022-11-15T06:39:42;10.50;99.90
37530;DHT22;23374;52.758;6.872;2022-11-15T06:42:03;10.50;99.90
37530;DHT22;23374;52.758;6.872;2022-11-15T06:44:23;10.50;99.90
37530;DHT22;23374;52.758;6.872;2022-11-15T06:46:43;10.60;99.90
37530;DHT22;23374;52.758;6.872;2022-11-15T06:49:03;10.50;99.90
37530;DHT22;23374;52.758;6.872;2022-11-15T06:51:23;10.60;99.90
37530;DHT22;23374;52.758;6.872;2022-11-15T06:53:44;10.60;99.90
37530;DHT22;23374;52.758;6.872;2022-11-15T06:56:06;10.60;99.90
37530;DHT22;23374;52.758;6.872;2022-11-15T06:58:26;10.70;99.90
37530;DHT22;23374;52.758;6.872;2022-11-15T07:00:47;10.70;99.90
37530;DHT22;23374;52.758;6.872;2022-11-15T07:03:08;10.70;99.90
37530;DHT22;23374;52.758;6.872;2022-11-15T07:05:29;10.70;99.90
37530;DHT22;23374;52.758;6.872;2022-11-15T07:07:57;10.70;99.90
37530;DHT22;23374;52.758;6.872;2022-11-15T07:10:17;10.80;99.90
37530;DHT22;23374;52.758;6.872;2022-11-15T07:12:38;10.80;99.90
37530;DHT22;23374;52.758;6.872;2022-11-15T07:14:58;10.80;99.90
37530;DHT22;23374;52.758;6.872;2022-11-15T07:17:18;10.80;99.90
37530;DHT22;23374;52.758;6.872;2022-11-15T07:19:38;10.80;99.90
37530;DHT22;23374;52.758;6.872;2022-11-15T07:21:58;10.80;99.90
37530;DHT22;23374;52.758;6.872;2022-11-15T07:24:18;10.90;99.90
37530;DHT22;23374;52.758;6.872;2022-11-15T07:26:39;10.90;99.90
37530;DHT22;23374;52.758;6.872;2022-11-15T07:28:59;10.90;99.90
37530;DHT22;23374;52.758;6.872;2022-11-15T07:31:19;10.90;99.90
37530;DHT22;23374;52.758;6.872;2022-11-15T07:33:40;10.90;99.90
37530;DHT22;23374;52.758;6.872;2022-11-15T07:36:01;10.90;99.90
37530;DHT22;23374;52.758;6.872;2022-11-15T07:38:22;11.00;99.90
37530;DHT22;23374;52.758;6.872;2022-11-15T07:40:42;11.00;99.90
37530;DHT22;23374;52.758;6.872;2022-11-15T07:43:05;11.00;99.90
37530;DHT22;23374;52.758;6.872;2022-11-15T07:45:26;11.00;99.90
37530;DHT22;23374;52.758;6.872;2022-11-15T07:47:50;11.10;99.90
37530;DHT22;23374;52.758;6.872;2022-11-15T07:50:10;11.10;99.90
37530;DHT22;23374;52.758;6.872;2022-11-15T07:52:30;11.10;99.90
37530;DHT22;23374;52.758;6.872;2022-11-15T07:54:51;11.10;99.90
37530;DHT22;23374;52.758;6.872;2022-11-15T07:57:11;11.10;99.90
37530;DHT22;23374;52.758;6.872;2022-11-15T07:59:32;11.10;99.90
37530;DHT22;23374;52.758;6.872;2022-11-15T08:01:52;11.20;99.90
37530;DHT22;23374;52.758;6.872;2022-11-15T08:04:13;11.20;99.90
37530;DHT22;23374;52.758;6.872;2022-11-15T08:06:33;11.20;99.90
37530;DHT22;23374;52.758;6.872;2022-11-15T08:08:54;11.20;99.90
37530;DHT22;23374;52.758;6.872;2022-11-15T08:11:14;11.30;99.90
37530;DHT22;23374;52.758;6.872;2022-11-15T08:13:35;11.30;99.90
37530;DHT22;23374;52.758;6.872;2022-11-15T08:16:00;11.30;99.90
37530;DHT22;23374;52.758;6.872;2022-11-15T08:18:21;11.30;99.90
37530;DHT22;23374;52.758;6.872;2022-11-15T08:20:42;11.40;99.90
37530;DHT22;23374;52.758;6.872;2022-11-15T08:23:04;11.30;99.90
37530;DHT22;23374;52.758;6.872;2022-11-15T08:25:26;11.30;99.90
37530;DHT22;23374;52.758;6.872;2022-11-15T08:27:47;11.40;99.90
37530;DHT22;23374;52.758;6.872;2022-11-15T08:30:08;11.40;99.90
37530;DHT22;23374;52.758;6.872;2022-11-15T08:32:30;11.40;99.90
37530;DHT22;23374;52.758;6.872;2022-11-15T08:34:50;11.40;99.90
37530;DHT22;23374;52.758;6.872;2022-11-15T08:37:11;11.40;99.90
37530;DHT22;23374;52.758;6.872;2022-11-15T08:39:31;11.40;99.90
37530;DHT22;23374;52.758;6.872;2022-11-15T08:41:51;11.50;99.90
37530;DHT22;23374;52.758;6.872;2022-11-15T08:44:11;11.50;99.90
37530;DHT22;23374;52.758;6.872;2022-11-15T08:46:32;11.50;99.90
37530;DHT22;23374;52.758;6.872;2022-11-15T08:48:52;11.50;99.90
37530;DHT22;23374;52.758;6.872;2022-11-15T08:51:12;11.50;99.90
37530;DHT22;23374;52.758;6.872;2022-11-15T08:53:34;11.50;99.90
37530;DHT22;23374;52.758;6.872;2022-11-15T08:55:54;11.50;99.90
37530;DHT22;23374;52.758;6.872;2022-11-15T08:58:14;11.50;99.90
37530;DHT22;23374;52.758;6.872;2022-11-15T09:00:34;11.50;99.90
37530;DHT22;23374;52.758;6.872;2022-11-15T09:02:55;11.50;99.90
37530;DHT22;23374;52.758;6.872;2022-11-15T09:05:15;11.50;99.90
37530;DHT22;23374;52.758;6.872;2022-11-15T09:07:36;11.50;99.90
37530;DHT22;23374;52.758;6.872;2022-11-15T09:09:56;11.60;99.90
37530;DHT22;23374;52.758;6.872;2022-11-15T09:12:17;11.60;99.90
37530;DHT22;23374;52.758;6.872;2022-11-15T09:14:37;11.60;99.90
37530;DHT22;23374;52.758;6.872;2022-11-15T09:16:58;11.60;99.90
37530;DHT22;23374;52.758;6.872;2022-11-15T09:19:18;11.60;99.90
37530;DHT22;23374;52.758;6.872;2022-11-15T09:21:39;11.60;99.90
37530;DHT22;23374;52.758;6.872;2022-11-15T09:23:59;11.70;99.90
37530;DHT22;23374;52.758;6.872;2022-11-15T09:26:19;11.70;99.90
37530;DHT22;23374;52.758;6.872;2022-11-15T09:28:40;11.70;99.90
37530;DHT22;23374;52.758;6.872;2022-11-15T09:31:04;11.70;99.90
37530;DHT22;23374;52.758;6.872;2022-11-15T09:33:26;11.80;99.90
37530;DHT22;23374;52.758;6.872;2022-11-15T09:35:46;11.80;99.90
37530;DHT22;23374;52.758;6.872;2022-11-15T09:38:07;11.80;99.90
37530;DHT22;23374;52.758;6.872;2022-11-15T09:40:27;11.80;99.90
37530;DHT22;23374;52.758;6.872;2022-11-15T09:55:26;11.80;99.90
37530;DHT22;23374;52.758;6.872;2022-11-15T09:58:07;11.80;99.90
37530;DHT22;23374;52.758;6.872;2022-11-15T10:00:40;11.80;99.90
37530;DHT22;23374;52.758;6.872;2022-11-15T10:03:25;11.80;99.90
37530;DHT22;23374;52.758;6.872;2022-11-15T10:05:47;11.80;99.90
37530;DHT22;23374;52.758;6.872;2022-11-15T10:09:02;11.70;99.90
37530;DHT22;23374;52.758;6.872;2022-11-15T10:11:34;11.70;99.90
37530;DHT22;23374;52.758;6.872;2022-11-15T10:14:09;11.70;99.90
37530;DHT22;23374;52.758;6.872;2022-11-15T10:18:18;11.70;99.90
37530;DHT22;23374;52.758;6.872;2022-11-15T10:22:56;11.80;99.90
37530;DHT22;23374;52.758;6.872;2022-11-15T10:25:30;11.80;99.90
37530;DHT22;23374;52.758;6.872;2022-11-15T10:28:17;11.80;99.90
37530;DHT22;23374;52.758;6.872;2022-11-15T10:30:49;11.80;99.90
37530;DHT22;23374;52.758;6.872;2022-11-15T10:37:00;11.80;99.90
37530;DHT22;23374;52.758;6.872;2022-11-15T10:39:23;11.80;99.90
37530;DHT22;23374;52.758;6.872;2022-11-15T10:41:43;11.80;99.90
37530;DHT22;23374;52.758;6.872;2022-11-15T10:44:29;11.80;99.90
37530;DHT22;23374;52.758;6.872;2022-11-15T10:47:31;11.90;99.90
37530;DHT22;23374;52.758;6.872;2022-11-15T10:50:24;11.90;99.90
37530;DHT22;23374;52.758;6.872;2022-11-15T10:52:47;12.00;99.90
37530;DHT22;23374;52.758;6.872;2022-11-15T10:56:12;12.00;99.90
37530;DHT22;23374;52.758;6.872;2022-11-15T10:58:44;12.10;99.90
37530;DHT22;23374;52.758;6.872;2022-11-15T11:01:20;12.10;99.90
37530;DHT22;23374;52.758;6.872;2022-11-15T11:03:44;12.10;99.90
37530;DHT22;23374;52.758;6.872;2022-11-15T11:06:18;12.20;99.90
37530;DHT22;23374;52.758;6.872;2022-11-15T11:08:39;12.20;99.90
37530;DHT22;23374;52.758;6.872;2022-11-15T11:11:01;12.20;99.90
37530;DHT22;23374;52.758;6.872;2022-11-15T11:13:26;12.20;99.90
37530;DHT22;23374;52.758;6.872;2022-11-15T11:15:47;12.30;99.90
37530;DHT22;23374;52.758;6.872;2022-11-15T11:18:37;12.30;99.90
37530;DHT22;23374;52.758;6.872;2022-11-15T11:21:04;12.30;99.90
37530;DHT22;23374;52.758;6.872;2022-11-15T11:23:44;12.30;99.90
37530;DHT22;23374;52.758;6.872;2022-11-15T11:32:04;12.40;99.90
37530;DHT22;23374;52.758;6.872;2022-11-15T11:34:50;12.40;99.90
37530;DHT22;23374;52.758;6.872;2022-11-15T11:44:28;12.50;99.90
37530;DHT22;23374;52.758;6.872;2022-11-15T11:47:47;12.60;99.90
37530;DHT22;23374;52.758;6.872;2022-11-15T11:50:24;12.60;99.90
37530;DHT22;23374;52.758;6.872;2022-11-15T11:53:02;12.60;99.90
37530;DHT22;23374;52.758;6.872;2022-11-15T11:55:44;12.60;99.90
37530;DHT22;23374;52.758;6.872;2022-11-15T11:58:38;12.60;99.90
37530;DHT22;23374;52.758;6.872;2022-11-15T12:01:25;12.60;99.90
37530;DHT22;23374;52.758;6.872;2022-11-15T12:04:19;12.60;99.90
37530;DHT22;23374;52.758;6.872;2022-11-15T12:13:30;12.60;99.90
37530;DHT22;23374;52.758;6.872;2022-11-15T12:18:58;12.50;99.90
37530;DHT22;23374;52.758;6.872;2022-11-15T12:25:05;12.50;99.90
37530;DHT22;23374;52.758;6.872;2022-11-15T12:28:08;12.60;99.90
37530;DHT22;23374;52.758;6.872;2022-11-15T12:30:45;12.60;99.90
37530;DHT22;23374;52.758;6.872;2022-11-15T12:33:42;12.60;99.90
37530;DHT22;23374;52.758;6.872;2022-11-15T12:36:32;12.60;99.90
37530;DHT22;23374;52.758;6.872;2022-11-15T12:39:12;12.70;99.90
37530;DHT22;23374;52.758;6.872;2022-11-15T12:41:38;12.70;99.90
37530;DHT22;23374;52.758;6.872;2022-11-15T12:43:59;12.80;99.90
37530;DHT22;23374;52.758;6.872;2022-11-15T12:48:44;12.90;99.90
37530;DHT22;23374;52.758;6.872;2022-11-15T12:51:05;12.90;99.90
37530;DHT22;23374;52.758;6.872;2022-11-15T12:53:35;13.00;99.90
37530;DHT22;23374;52.758;6.872;2022-11-15T12:57:56;13.00;99.90
37530;DHT22;23374;52.758;6.872;2022-11-15T13:00:39;13.00;90.50
37530;DHT22;23374;52.758;6.872;2022-11-15T13:04:54;13.00;99.90
37530;DHT22;23374;52.758;6.872;2022-11-15T13:08:34;13.10;56.40
37530;DHT22;23374;52.758;6.872;2022-11-15T13:10:55;13.20;33.50
37530;DHT22;23374;52.758;6.872;2022-11-15T13:13:43;13.20;87.90
37530;DHT22;23374;52.758;6.872;2022-11-15T13:16:05;13.20;29.70
37530;DHT22;23374;52.758;6.872;2022-11-15T13:21:22;13.30;25.00
37530;DHT22;23374;52.758;6.872;2022-11-15T13:24:01;13.20;5.80
37530;DHT22;23374;52.758;6.872;2022-11-15T13:26:21;13.20;14.70
37530;DHT22;23374;52.758;6.872;2022-11-15T13:28:47;13.20;18.40
37530;DHT22;23374;52.758;6.872;2022-11-15T13:31:43;13.20;21.60
37530;DHT22;23374;52.758;6.872;2022-11-15T13:34:29;13.20;1.00
37530;DHT22;23374;52.758;6.872;2022-11-15T13:36:53;13.20;1.00
37530;DHT22;23374;52.758;6.872;2022-11-15T13:39:35;13.20;17.60
37530;DHT22;23374;52.758;6.872;2022-11-15T13:41:58;13.10;1.00
37530;DHT22;23374;52.758;6.872;2022-11-15T13:44:23;13.10;1.00
37530;DHT22;23374;52.758;6.872;2022-11-15T13:46:44;13.10;1.00
37530;DHT22;23374;52.758;6.872;2022-11-15T13:49:09;13.10;1.00
37530;DHT22;23374;52.758;6.872;2022-11-15T13:52:13;13.10;1.00
37530;DHT22;23374;52.758;6.872;2022-11-15T13:58:51;13.10;1.00
37530;DHT22;23374;52.758;6.872;2022-11-15T14:01:19;13.10;1.00
37530;DHT22;23374;52.758;6.872;2022-11-15T14:03:54;13.10;1.00
37530;DHT22;23374;52.758;6.872;2022-11-15T14:06:17;13.10;1.00
37530;DHT22;23374;52.758;6.872;2022-11-15T14:08:42;13.10;1.00
37530;DHT22;23374;52.758;6.872;2022-11-15T14:11:20;13.00;1.00
37530;DHT22;23374;52.758;6.872;2022-11-15T14:13:40;13.00;1.00
37530;DHT22;23374;52.758;6.872;2022-11-15T14:16:21;13.00;1.00
37530;DHT22;23374;52.758;6.872;2022-11-15T14:18:52;13.00;1.00
37530;DHT22;23374;52.758;6.872;2022-11-15T14:21:13;12.90;1.00
37530;DHT22;23374;52.758;6.872;2022-11-15T14:23:33;12.90;1.00
37530;DHT22;23374;52.758;6.872;2022-11-15T14:25:58;12.90;1.00
37530;DHT22;23374;52.758;6.872;2022-11-15T14:28:37;12.90;1.00
37530;DHT22;23374;52.758;6.872;2022-11-15T14:31:00;12.80;1.00
37530;DHT22;23374;52.758;6.872;2022-11-15T14:33:43;12.90;1.00
37530;DHT22;23374;52.758;6.872;2022-11-15T14:36:18;12.80;1.00
37530;DHT22;23374;52.758;6.872;2022-11-15T14:38:38;12.80;1.00
37530;DHT22;23374;52.758;6.872;2022-11-15T14:40:59;12.80;1.00
37530;DHT22;23374;52.758;6.872;2022-11-15T14:43:19;12.70;1.00
37530;DHT22;23374;52.758;6.872;2022-11-15T14:45:40;12.70;1.00
37530;DHT22;23374;52.758;6.872;2022-11-15T14:48:00;12.70;1.00
37530;DHT22;23374;52.758;6.872;2022-11-15T14:50:21;12.70;1.00
37530;DHT22;23374;52.758;6.872;2022-11-15T14:52:42;12.70;1.00
37530;DHT22;23374;52.758;6.872;2022-11-15T14:57:52;12.60;1.00
37530;DHT22;23374;52.758;6.872;2022-11-15T15:00:14;12.50;1.00
37530;DHT22;23374;52.758;6.872;2022-11-15T15:02:34;12.50;1.00
37530;DHT22;23374;52.758;6.872;2022-11-15T15:04:55;12.50;1.00
37530;DHT22;23374;52.758;6.872;2022-11-15T15:07:16;12.40;1.00
37530;DHT22;23374;52.758;6.872;2022-11-15T15:09:36;12.40;1.00
37530;DHT22;23374;52.758;6.872;2022-11-15T15:11:57;12.40;1.00
37530;DHT22;23374;52.758;6.872;2022-11-15T15:14:17;12.40;1.00
37530;DHT22;23374;52.758;6.872;2022-11-15T15:16:37;12.40;1.00
37530;DHT22;23374;52.758;6.872;2022-11-15T15:18:58;12.30;1.00
37530;DHT22;23374;52.758;6.872;2022-11-15T15:21:24;12.30;1.00
37530;DHT22;23374;52.758;6.872;2022-11-15T15:23:45;12.30;1.00
37530;DHT22;23374;52.758;6.872;2022-11-15T15:26:07;12.30;1.00
37530;DHT22;23374;52.758;6.872;2022-11-15T15:28:28;12.20;1.00
37530;DHT22;23374;52.758;6.872;2022-11-15T15:30:48;12.20;1.00
37530;DHT22;23374;52.758;6.872;2022-11-15T15:33:09;12.10;1.00
37530;DHT22;23374;52.758;6.872;2022-11-15T15:35:34;12.10;1.00
37530;DHT22;23374;52.758;6.872;2022-11-15T15:37:54;12.10;1.00
37530;DHT22;23374;52.758;6.872;2022-11-15T15:40:20;12.00;1.00
37530;DHT22;23374;52.758;6.872;2022-11-15T15:42:41;12.00;1.00
37530;DHT22;23374;52.758;6.872;2022-11-15T15:45:01;12.00;1.00
37530;DHT22;23374;52.758;6.872;2022-11-15T15:47:23;12.00;1.00
37530;DHT22;23374;52.758;6.872;2022-11-15T15:49:43;11.90;1.00
37530;DHT22;23374;52.758;6.872;2022-11-15T15:52:03;11.90;1.00
37530;DHT22;23374;52.758;6.872;2022-11-15T15:54:23;11.90;1.00
37530;DHT22;23374;52.758;6.872;2022-11-15T15:56:44;11.90;1.00
37530;DHT22;23374;52.758;6.872;2022-11-15T15:59:04;11.90;1.00
37530;DHT22;23374;52.758;6.872;2022-11-15T16:01:24;11.80;1.00
37530;DHT22;23374;52.758;6.872;2022-11-15T16:03:44;11.80;1.00
37530;DHT22;23374;52.758;6.872;2022-11-15T16:06:32;11.80;1.00
37530;DHT22;23374;52.758;6.872;2022-11-15T16:08:53;11.80;1.00
37530;DHT22;23374;52.758;6.872;2022-11-15T16:11:13;11.80;1.00
37530;DHT22;23374;52.758;6.872;2022-11-15T16:13:34;11.80;1.00
37530;DHT22;23374;52.758;6.872;2022-11-15T16:15:54;11.80;1.00
37530;DHT22;23374;52.758;6.872;2022-11-15T16:18:16;11.80;1.00
37530;DHT22;23374;52.758;6.872;2022-11-15T16:20:40;11.80;1.00
37530;DHT22;23374;52.758;6.872;2022-11-15T16:23:05;11.70;1.00
37530;DHT22;23374;52.758;6.872;2022-11-15T16:25:26;11.80;1.00
37530;DHT22;23374;52.758;6.872;2022-11-15T16:27:46;11.80;1.00
37530;DHT22;23374;52.758;6.872;2022-11-15T16:30:16;11.80;1.00
37530;DHT22;23374;52.758;6.872;2022-11-15T16:32:36;11.80;1.00
37530;DHT22;23374;52.758;6.872;2022-11-15T16:34:56;11.80;1.00
37530;DHT22;23374;52.758;6.872;2022-11-15T16:37:24;11.80;1.00
37530;DHT22;23374;52.758;6.872;2022-11-15T16:39:44;11.80;1.00
37530;DHT22;23374;52.758;6.872;2022-11-15T16:42:04;11.80;1.00
37530;DHT22;23374;52.758;6.872;2022-11-15T16:44:25;11.80;99.90
37530;DHT22;23374;52.758;6.872;2022-11-15T16:46:45;11.80;99.90
37530;DHT22;23374;52.758;6.872;2022-11-15T16:49:14;11.90;1.00
37530;DHT22;23374;52.758;6.872;2022-11-15T16:51:34;11.80;99.90
37530;DHT22;23374;52.758;6.872;2022-11-15T16:53:54;11.80;99.90
37530;DHT22;23374;52.758;6.872;2022-11-15T16:56:27;11.80;1.00
37530;DHT22;23374;52.758;6.872;2022-11-15T16:58:48;11.80;99.90
37530;DHT22;23374;52.758;6.872;2022-11-15T17:01:17;11.80;1.00
37530;DHT22;23374;52.758;6.872;2022-11-15T17:03:38;11.70;99.90